Terminal Aerodrome Forecast
Issued by NWS

Home | Current Version | Previous Version | Text Only | Print | Product List | Glossary On
Versions: 1 2 3 4 5 6 7 8 9 10 11 12 13 14 15
000
FTUS45 KPSR 272344 CCA
TAFIWA
TAF COR
KIWA 272344Z 2800/2824 25012G20KT P6SM SKC
     FM280200 24007KT P6SM SKC
     FM280700 12006KT P6SM SKC
     FM281800 23010KT P6SM SKC
      AMD LTD TO CLD VIS AND WIND 2803/2813=

USA.gov is the U.S. government's official web portal to all federal, state and local government web resources and services.